Time;durP1;ratioP1;P1;durP2;ratioP2;P2;SDS_P1;SDS_P2;PMS_P1;PMS_P2;Temp;Humidity;BMP_temperature;BMP_pressure;BME280_temperature;BME280_humidity;BME280_pressure;Samples;Min_cycle;Max_cycle;Signal;HPM_P1;HPM_P2
2022/08/18 00:00:38;;;;;;;3.50;3.08;;;24.60;92.30;;;;;;5013812;28;20092;-24
2022/08/18 00:03:06;;;;;;;3.20;2.90;;;24.60;92.20;;;;;;5013644;28;20467;-24
2022/08/18 00:05:33;;;;;;;4.22;3.13;;;24.60;92.20;;;;;;5014605;28;20077;-24
2022/08/18 00:07:59;;;;;;;5.38;3.35;;;24.60;92.20;;;;;;5013630;28;20056;-23
2022/08/18 00:10:26;;;;;;;4.00;3.25;;;24.50;92.20;;;;;;5013541;28;20471;-24
2022/08/18 00:12:52;;;;;;;3.28;2.97;;;24.50;92.20;;;;;;5013357;28;20064;-24
2022/08/18 00:15:18;;;;;;;5.32;3.30;;;24.60;92.20;;;;;;5013579;28;20030;-24
2022/08/18 00:17:44;;;;;;;4.95;3.25;;;24.50;92.20;;;;;;5013227;28;20049;-24
2022/08/18 00:20:15;;;;;;;3.75;3.28;;;24.50;92.20;;;;;;5013625;28;20034;-24
2022/08/18 00:22:41;;;;;;;3.58;3.10;;;24.50;92.20;;;;;;5013685;28;20026;-23
2022/08/18 00:25:09;;;;;;;3.53;3.22;;;24.50;92.20;;;;;;5014616;28;20079;-24
2022/08/18 00:27:37;;;;;;;4.55;3.35;;;24.50;92.20;;;;;;5013553;28;20040;-24
2022/08/18 00:30:06;;;;;;;6.05;3.33;;;24.50;92.20;;;;;;5013450;28;20028;-24
2022/08/18 00:32:37;;;;;;;5.43;2.80;;;24.50;92.30;;;;;;5013859;28;20029;-24
2022/08/18 00:35:07;;;;;;;3.55;3.22;;;24.50;92.30;;;;;;4996303;28;20060;-24
2022/08/18 00:37:32;;;;;;;3.38;2.90;;;24.50;92.30;;;;;;5014459;28;20030;-24
2022/08/18 00:39:58;;;;;;;3.30;2.95;;;24.50;92.30;;;;;;5015300;28;20449;-23
2022/08/18 00:42:27;;;;;;;4.35;3.00;;;24.50;92.40;;;;;;5014055;28;20034;-24
2022/08/18 00:44:53;;;;;;;4.82;3.30;;;24.50;92.40;;;;;;5013602;28;20022;-24
2022/08/18 00:47:19;;;;;;;4.57;3.00;;;24.50;92.40;;;;;;5013899;28;20494;-24
2022/08/18 00:49:50;;;;;;;3.47;3.17;;;24.50;92.30;;;;;;5014106;28;20335;-23
2022/08/18 00:52:16;;;;;;;4.60;3.50;;;24.50;92.30;;;;;;5013500;28;20026;-24
2022/08/18 00:54:44;;;;;;;4.28;3.28;;;24.50;92.30;;;;;;5012740;28;20552;-24
2022/08/18 00:57:12;;;;;;;3.60;2.80;;;24.50;92.40;;;;;;5012968;28;20037;-24
2022/08/18 01:00:10;;;;;;;3.67;3.20;;;24.50;92.40;;;;;;5012661;28;20386;-24
2022/08/18 01:02:42;;;;;;;4.63;3.03;;;24.50;92.40;;;;;;5012983;28;20471;-24
2022/08/18 01:05:16;;;;;;;4.90;3.47;;;24.50;92.50;;;;;;5012633;28;20048;-24
2022/08/18 01:07:45;;;;;;;4.72;3.40;;;24.50;92.50;;;;;;5012755;28;20026;-24
2022/08/18 01:10:15;;;;;;;4.22;3.33;;;24.50;92.50;;;;;;5012874;28;20424;-24
2022/08/18 01:12:42;;;;;;;3.15;2.85;;;24.40;92.50;;;;;;5012834;28;20036;-24
2022/08/18 01:15:09;;;;;;;4.25;2.83;;;24.50;92.60;;;;;;5012787;28;20483;-24
2022/08/18 01:23:19;;;;;;;3.97;3.10;;;24.40;92.50;;;;;;5012610;28;20060;-24
2022/08/18 01:26:01;;;;;;;3.90;3.20;;;24.40;92.60;;;;;;5013271;28;20030;-23
2022/08/18 01:28:54;;;;;;;3.30;3.00;;;24.40;92.60;;;;;;5012400;28;20104;-24
2022/08/18 01:31:37;;;;;;;4.30;3.03;;;24.40;92.60;;;;;;5009454;28;20087;-24
2022/08/18 01:34:07;;;;;;;4.05;3.25;;;24.40;92.60;;;;;;4994981;28;20022;-24
2022/08/18 01:36:36;;;;;;;3.22;2.92;;;24.40;92.60;;;;;;5012498;28;20029;-24
2022/08/18 01:39:04;;;;;;;3.55;2.72;;;24.40;92.60;;;;;;5012388;28;20494;-23
2022/08/18 01:41:30;;;;;;;4.05;3.05;;;24.40;92.50;;;;;;5012266;28;20025;-24
2022/08/18 01:43:57;;;;;;;4.45;3.28;;;24.40;92.60;;;;;;5013481;28;20410;-24
2022/08/18 01:46:23;;;;;;;4.38;2.65;;;24.40;92.60;;;;;;5013746;28;20475;-24
2022/08/18 01:48:50;;;;;;;3.72;2.72;;;24.40;92.60;;;;;;5016434;28;20049;-24
2022/08/18 01:51:18;;;;;;;3.53;2.67;;;24.40;92.70;;;;;;5012602;28;20022;-24
2022/08/18 01:53:45;;;;;;;3.33;3.03;;;24.40;92.70;;;;;;5012525;28;20076;-24
2022/08/18 01:56:11;;;;;;;4.57;3.35;;;24.40;92.60;;;;;;5012392;28;20483;-24
2022/08/18 01:58:38;;;;;;;4.72;2.90;;;24.40;92.60;;;;;;5012319;28;20022;-25
2022/08/18 02:01:04;;;;;;;3.08;2.78;;;24.40;92.60;;;;;;5012304;28;20391;-24
2022/08/18 02:03:35;;;;;;;3.83;2.97;;;24.40;92.60;;;;;;5012111;28;20375;-24
2022/08/18 02:06:03;;;;;;;4.47;2.75;;;24.40;92.60;;;;;;5013019;28;20025;-24
2022/08/18 02:08:30;;;;;;;3.20;2.90;;;24.40;92.60;;;;;;5012125;28;20407;-24
2022/08/18 02:10:59;;;;;;;3.10;2.80;;;24.40;92.60;;;;;;5012444;28;20483;-25
2022/08/18 02:13:25;;;;;;;4.80;2.80;;;24.30;92.60;;;;;;5011961;28;20049;-24
2022/08/18 02:15:51;;;;;;;3.45;2.75;;;24.30;92.60;;;;;;5011918;28;20049;-24
2022/08/18 02:18:20;;;;;;;3.30;2.83;;;24.40;92.70;;;;;;5011869;28;20088;-24
2022/08/18 02:20:46;;;;;;;3.55;3.00;;;24.40;92.70;;;;;;5012031;28;20026;-24
2022/08/18 02:23:13;;;;;;;3.40;2.70;;;24.40;92.70;;;;;;5011648;28;20479;-24
2022/08/18 02:25:41;;;;;;;3.70;3.00;;;24.30;92.70;;;;;;5011847;28;20037;-24
2022/08/18 02:28:07;;;;;;;3.30;2.65;;;24.30;92.70;;;;;;5011881;28;20022;-24
2022/08/18 02:30:36;;;;;;;4.18;3.00;;;24.40;92.70;;;;;;5011759;28;20479;-24
2022/08/18 02:33:05;;;;;;;3.75;3.10;;;24.30;92.70;;;;;;5011789;28;20022;-24
2022/08/18 02:35:31;;;;;;;3.13;2.80;;;24.30;92.70;;;;;;5011710;28;20475;-24
2022/08/18 02:38:01;;;;;;;3.83;3.00;;;24.30;92.70;;;;;;5011643;28;20140;-24
2022/08/18 02:40:27;;;;;;;3.92;2.80;;;24.30;92.70;;;;;;5011413;28;20037;-24
2022/08/18 02:42:54;;;;;;;3.15;2.60;;;24.30;92.70;;;;;;5011385;28;20061;-24
2022/08/18 02:45:22;;;;;;;3.70;2.72;;;24.30;92.70;;;;;;5011692;28;20480;-24
2022/08/18 02:47:53;;;;;;;4.68;3.15;;;24.30;92.70;;;;;;5011853;28;20021;-24
2022/08/18 02:50:19;;;;;;;3.45;2.60;;;24.30;92.70;;;;;;5011514;28;20018;-24
2022/08/18 02:52:45;;;;;;;5.47;2.90;;;24.30;92.70;;;;;;5011976;28;20030;-24
2022/08/18 02:55:11;;;;;;;3.38;3.05;;;24.30;92.70;;;;;;5011696;28;20032;-23
2022/08/18 02:57:41;;;;;;;2.90;2.70;;;24.30;92.70;;;;;;4993830;28;20036;-24
2022/08/18 03:00:09;;;;;;;6.40;3.05;;;24.20;92.70;;;;;;5013142;28;20025;-24
2022/08/18 03:02:35;;;;;;;3.38;2.97;;;24.30;92.70;;;;;;5015065;28;20368;-24
2022/08/18 03:05:01;;;;;;;4.70;2.80;;;24.20;92.70;;;;;;5015003;28;20018;-24
2022/08/18 03:07:26;;;;;;;2.88;2.53;;;24.30;92.80;;;;;;5014741;28;20054;-24
2022/08/18 03:09:52;;;;;;;4.35;3.08;;;24.20;92.70;;;;;;5014445;28;20076;-23
2022/08/18 03:12:18;;;;;;;3.13;2.83;;;24.30;92.80;;;;;;5015694;28;20069;-24
2022/08/18 03:14:45;;;;;;;3.17;2.70;;;24.30;92.80;;;;;;5015568;28;20471;-24
2022/08/18 03:17:12;;;;;;;3.30;2.92;;;24.20;92.70;;;;;;5014347;28;20034;-24
2022/08/18 03:19:38;;;;;;;5.32;3.10;;;24.20;92.70;;;;;;5014550;28;20467;-24
2022/08/18 03:22:06;;;;;;;3.60;2.70;;;24.30;92.70;;;;;;5015233;28;20026;-24
2022/08/18 03:24:31;;;;;;;3.28;2.70;;;24.20;92.70;;;;;;5014718;28;20068;-24
2022/08/18 03:26:57;;;;;;;3.63;2.80;;;24.20;92.70;;;;;;5014893;28;20421;-23
2022/08/18 03:29:24;;;;;;;3.60;2.60;;;24.30;92.70;;;;;;5014758;28;20022;-24
2022/08/18 03:31:50;;;;;;;4.57;2.83;;;24.20;92.70;;;;;;5014562;28;20034;-24
2022/08/18 03:34:18;;;;;;;4.10;3.28;;;24.20;92.70;;;;;;5014705;28;20066;-23
2022/08/18 03:36:44;;;;;;;5.18;2.97;;;24.20;92.70;;;;;;5014615;28;20033;-24
2022/08/18 03:39:12;;;;;;;4.82;2.95;;;24.20;92.70;;;;;;5014244;28;20033;-24
2022/08/18 03:41:42;;;;;;;5.10;2.95;;;24.20;92.70;;;;;;5013917;28;20029;-24
2022/08/18 03:44:08;;;;;;;3.47;3.10;;;24.20;92.70;;;;;;5014385;28;20471;-24
2022/08/18 03:46:34;;;;;;;3.88;2.92;;;24.20;92.70;;;;;;5014308;28;20106;-24
2022/08/18 03:49:00;;;;;;;3.05;2.75;;;24.20;92.70;;;;;;5014162;28;20054;-24
2022/08/18 03:51:30;;;;;;;4.10;3.10;;;24.20;92.70;;;;;;4996193;28;20026;-24
2022/08/18 03:53:59;;;;;;;2.92;2.65;;;24.20;92.70;;;;;;5014746;28;20030;-24
2022/08/18 03:56:27;;;;;;;4.43;2.88;;;24.20;92.70;;;;;;5014227;28;20513;-24
2022/08/18 03:58:58;;;;;;;3.38;2.85;;;24.20;92.70;;;;;;5013912;28;20052;-24
2022/08/18 04:01:27;;;;;;;3.20;2.90;;;24.20;92.70;;;;;;5013919;28;20021;-24
2022/08/18 04:03:56;;;;;;;3.33;3.03;;;24.20;92.70;;;;;;5013955;28;20014;-24
2022/08/18 04:06:25;;;;;;;3.45;2.90;;;24.20;92.70;;;;;;5014196;28;20064;-24
2022/08/18 04:08:53;;;;;;;3.15;2.85;;;24.20;92.70;;;;;;5013763;28;20379;-24
2022/08/18 04:11:20;;;;;;;6.05;2.97;;;24.20;92.70;;;;;;4995229;28;20022;-24
2022/08/18 04:13:46;;;;;;;3.55;3.05;;;24.20;92.70;;;;;;5013599;28;20032;-24
2022/08/18 04:16:12;;;;;;;3.03;2.50;;;24.20;92.70;;;;;;5013528;28;20030;-24
2022/08/18 04:18:38;;;;;;;3.25;2.83;;;24.20;92.70;;;;;;5013511;28;20042;-24
2022/08/18 04:21:06;;;;;;;3.83;3.08;;;24.20;92.70;;;;;;5013467;28;20434;-24
2022/08/18 04:23:34;;;;;;;3.97;2.72;;;24.20;92.70;;;;;;5013490;28;20426;-24
2022/08/18 04:26:01;;;;;;;2.90;2.60;;;24.20;92.70;;;;;;5013521;28;20101;-24
2022/08/18 04:28:27;;;;;;;3.75;2.88;;;24.20;92.70;;;;;;5013406;28;20105;-24
2022/08/18 04:30:55;;;;;;;3.20;2.63;;;24.20;92.70;;;;;;5013744;28;20463;-23
2022/08/18 04:33:21;;;;;;;3.95;2.95;;;24.10;92.70;;;;;;5013188;28;20387;-24
2022/08/18 04:35:47;;;;;;;3.45;2.65;;;24.10;92.70;;;;;;5013298;28;20022;-23
2022/08/18 04:38:12;;;;;;;3.72;2.90;;;24.20;92.70;;;;;;5012948;28;20026;-24
2022/08/18 04:40:40;;;;;;;4.70;3.00;;;24.20;92.70;;;;;;5013063;28;20057;-24
2022/08/18 04:43:13;;;;;;;3.25;2.70;;;24.10;92.70;;;;;;5013066;28;20109;-24
2022/08/18 04:45:45;;;;;;;3.83;3.03;;;24.10;92.70;;;;;;5013108;28;20502;-24
2022/08/18 04:48:11;;;;;;;4.45;2.60;;;24.10;92.70;;;;;;5012899;28;20048;-24
2022/08/18 04:50:38;;;;;;;4.45;2.90;;;24.10;92.70;;;;;;5013141;28;20021;-24
2022/08/18 04:55:50;;;;;;;3.05;2.65;;;24.10;92.80;;;;;;5013279;28;20070;-24
2022/08/18 04:58:17;;;;;;;3.08;2.78;;;24.10;92.80;;;;;;5012805;28;20026;-24
2022/08/18 05:00:44;;;;;;;3.03;2.70;;;24.10;92.80;;;;;;5012665;28;20029;-24
2022/08/18 05:03:10;;;;;;;4.85;2.83;;;24.00;92.80;;;;;;5012713;28;20037;-25
2022/08/18 05:05:36;;;;;;;6.45;2.78;;;24.10;92.80;;;;;;5012723;28;20495;-24
2022/08/18 05:08:02;;;;;;;5.78;2.92;;;24.10;92.90;;;;;;5012669;28;20053;-24
2022/08/18 05:10:28;;;;;;;5.50;3.00;;;24.00;92.80;;;;;;5012790;28;20099;-23
2022/08/18 05:12:54;;;;;;;4.63;3.00;;;24.00;92.90;;;;;;5012631;28;20471;-24
2022/08/18 05:15:20;;;;;;;4.55;3.00;;;24.00;92.90;;;;;;5012760;28;20048;-24
2022/08/18 05:17:46;;;;;;;3.97;2.75;;;24.00;92.90;;;;;;5012800;28;20034;-24
2022/08/18 05:20:12;;;;;;;3.45;2.70;;;24.00;92.90;;;;;;5012309;28;20394;-24
2022/08/18 05:22:39;;;;;;;3.08;2.75;;;24.00;92.90;;;;;;5012279;28;20097;-24
2022/08/18 05:25:07;;;;;;;3.40;3.10;;;24.00;92.90;;;;;;5013169;28;20410;-24
2022/08/18 05:27:35;;;;;;;3.45;3.03;;;24.00;92.90;;;;;;5012354;28;20020;-24
2022/08/18 05:30:03;;;;;;;3.20;2.90;;;24.00;92.90;;;;;;5012179;28;20052;-24
2022/08/18 05:32:31;;;;;;;3.20;2.63;;;24.00;92.90;;;;;;5012325;28;20487;-24
2022/08/18 05:34:58;;;;;;;3.20;2.85;;;24.00;92.90;;;;;;5012568;28;20026;-24
2022/08/18 05:37:39;;;;;;;3.67;2.83;;;24.00;92.90;;;;;;5015654;28;20042;-24
2022/08/18 05:40:07;;;;;;;5.18;2.70;;;24.00;92.90;;;;;;5012839;28;20033;-24
2022/08/18 05:42:36;;;;;;;3.50;3.08;;;24.00;92.90;;;;;;5012526;28;20026;-24
2022/08/18 05:45:04;;;;;;;2.92;2.63;;;24.00;92.90;;;;;;5012764;28;20030;-24
2022/08/18 05:47:31;;;;;;;3.78;2.78;;;24.00;92.90;;;;;;5012240;28;20032;-24
2022/08/18 05:50:04;;;;;;;4.00;3.00;;;23.90;92.90;;;;;;5012301;28;20436;-24
2022/08/18 05:52:36;;;;;;;3.20;2.65;;;23.90;92.90;;;;;;5011894;28;20033;-24
2022/08/18 05:58:16;;;;;;;3.30;3.00;;;23.90;92.90;;;;;;5012067;28;20505;-24
2022/08/18 06:00:52;;;;;;;3.03;2.75;;;23.90;93.30;;;;;;5011867;28;20026;-24
2022/08/18 06:03:29;;;;;;;2.95;2.65;;;23.90;93.00;;;;;;5011870;28;20034;-24
2022/08/18 06:06:00;;;;;;;3.28;2.88;;;23.90;93.00;;;;;;5012396;28;20407;-24
2022/08/18 06:08:37;;;;;;;3.70;2.80;;;23.90;93.00;;;;;;5012041;28;20022;-24
2022/08/18 06:11:02;;;;;;;3.33;2.88;;;23.90;93.00;;;;;;5011887;28;20033;-24
2022/08/18 06:13:30;;;;;;;5.80;3.05;;;23.90;93.00;;;;;;5012265;28;20029;-24
2022/08/18 06:16:04;;;;;;;3.38;2.67;;;23.90;93.00;;;;;;5011812;28;20030;-24
2022/08/18 06:18:57;;;;;;;4.10;3.08;;;23.90;93.00;;;;;;5011585;28;20069;-24
2022/08/18 06:21:42;;;;;;;4.78;3.10;;;23.90;93.00;;;;;;5011785;28;20476;-24
2022/08/18 06:24:32;;;;;;;3.78;2.70;;;23.90;93.00;;;;;;5010972;28;20033;-24
2022/08/18 06:27:13;;;;;;;3.58;2.58;;;23.90;93.10;;;;;;5011945;28;20022;-24
2022/08/18 06:29:51;;;;;;;3.85;2.88;;;23.90;93.10;;;;;;5010341;28;20053;-24
2022/08/18 06:32:45;;;;;;;3.80;2.63;;;23.90;93.10;;;;;;5011626;28;20026;-24
2022/08/18 06:35:17;;;;;;;3.85;3.17;;;23.90;93.10;;;;;;5014121;28;20124;-24
2022/08/18 06:41:08;;;;;;;4.15;3.55;;;23.90;93.10;;;;;;5015347;28;20064;-24
2022/08/18 06:43:37;;;;;;;7.80;4.35;;;23.80;93.70;;;;;;5015378;28;20464;-24
2022/08/18 06:46:16;;;;;;;5.95;4.05;;;23.50;94.80;;;;;;4997509;28;20042;-24
2022/08/18 06:48:55;;;;;;;4.93;4.03;;;23.20;95.60;;;;;;5014454;28;20028;-24
2022/08/18 06:51:25;;;;;;;4.63;4.13;;;22.90;95.90;;;;;;5015968;28;20022;-24
2022/08/18 06:53:56;;;;;;;6.30;4.60;;;22.80;96.20;;;;;;4997743;28;20048;-24
2022/08/18 06:56:23;;;;;;;5.20;3.97;;;22.70;96.40;;;;;;5015078;28;20442;-24
2022/08/18 06:58:51;;;;;;;9.77;4.35;;;22.60;96.30;;;;;;5014921;28;20018;-24
2022/08/18 07:01:17;;;;;;;12.05;4.25;;;22.50;96.30;;;;;;5014891;28;20621;-24
2022/08/18 07:03:51;;;;;;;7.65;4.07;;;22.40;96.30;;;;;;5014913;28;20395;-23
2022/08/18 07:06:20;;;;;;;9.15;4.30;;;22.60;96.20;;;;;;5015060;28;20106;-24
2022/08/18 07:08:47;;;;;;;10.30;4.00;;;22.70;95.80;;;;;;5014689;28;20603;-24
2022/08/18 07:11:29;;;;;;;7.07;3.72;;;22.90;95.50;;;;;;5014663;28;20026;-24
2022/08/18 07:13:58;;;;;;;7.75;4.18;;;23.10;95.30;;;;;;5014834;28;20061;-24
2022/08/18 07:16:31;;;;;;;5.35;3.53;;;23.20;95.00;;;;;;5014639;28;20030;-24
2022/08/18 07:19:10;;;;;;;5.35;3.58;;;23.40;94.90;;;;;;4996954;28;20022;-24
2022/08/18 07:21:39;;;;;;;10.55;3.67;;;23.40;94.70;;;;;;5014591;28;20030;-24
2022/08/18 07:24:36;;;;;;;7.68;3.63;;;23.50;94.60;;;;;;5014353;28;20013;-23
2022/08/18 07:27:04;;;;;;;6.72;3.88;;;23.60;94.50;;;;;;5007345;28;20026;-24
2022/08/18 07:29:36;;;;;;;4.20;3.42;;;23.60;94.50;;;;;;5014342;28;20069;-24
2022/08/18 07:32:20;;;;;;;7.07;3.20;;;23.60;94.50;;;;;;5014326;28;20494;-24
2022/08/18 07:34:52;;;;;;;4.90;3.50;;;23.60;94.40;;;;;;5014303;28;20403;-24
2022/08/18 07:37:23;;;;;;;5.90;3.33;;;23.60;94.40;;;;;;5014270;28;20034;-24
2022/08/18 07:40:04;;;;;;;6.47;3.80;;;23.60;94.40;;;;;;5014091;28;20033;-24
2022/08/18 07:42:51;;;;;;;5.53;3.58;;;23.60;94.40;;;;;;5014180;28;20476;-24
2022/08/18 07:45:35;;;;;;;5.18;3.10;;;23.60;94.30;;;;;;5013877;28;20056;-23
2022/08/18 07:48:04;;;;;;;4.57;3.22;;;23.60;94.30;;;;;;5014273;28;20022;-24
2022/08/18 07:50:38;;;;;;;4.80;3.63;;;23.60;94.30;;;;;;5013823;28;20018;-24
2022/08/18 07:53:34;;;;;;;5.03;3.45;;;23.60;94.20;;;;;;5014582;28;20030;-23
2022/08/18 07:56:31;;;;;;;6.15;3.40;;;23.70;94.30;;;;;;4991039;28;20069;-24
2022/08/18 07:59:17;;;;;;;5.80;3.47;;;23.70;94.20;;;;;;5013857;28;20018;-23
2022/08/18 08:02:10;;;;;;;3.42;3.13;;;23.70;94.20;;;;;;5013573;28;20108;-23
2022/08/18 08:04:35;;;;;;;4.22;3.20;;;23.70;94.20;;;;;;5013897;28;20029;-24
2022/08/18 08:07:16;;;;;;;3.63;3.00;;;23.70;94.20;;;;;;5013660;28;20022;-24
2022/08/18 08:09:53;;;;;;;6.53;3.05;;;23.70;94.20;;;;;;5013514;28;20053;-24
2022/08/18 08:12:46;;;;;;;8.18;3.58;;;23.60;94.20;;;;;;5013697;28;20511;-24
2022/08/18 08:15:33;;;;;;;4.38;3.60;;;23.60;94.30;;;;;;5013511;28;20061;-24
2022/08/18 08:18:19;;;;;;;4.68;3.13;;;23.50;94.40;;;;;;5013382;28;20042;-23
2022/08/18 08:20:53;;;;;;;3.70;3.20;;;23.50;94.40;;;;;;5013379;28;20025;-24
2022/08/18 08:23:35;;;;;;;6.57;3.03;;;23.50;94.40;;;;;;5013544;28;20121;-24
2022/08/18 08:26:20;;;;;;;4.00;2.92;;;23.60;94.40;;;;;;5013530;28;20029;-23
2022/08/18 08:28:46;;;;;;;;;;;23.70;94.30;;;;;;5013478;28;20022;-24
2022/08/18 08:31:28;;;;;;;3.47;2.83;;;23.70;94.20;;;;;;5013308;28;19909;-24
2022/08/18 08:34:35;;;;;;;4.30;3.10;;;23.80;94.20;;;;;;5013278;28;20060;-24
2022/08/18 08:37:05;;;;;;;4.75;3.05;;;23.80;94.10;;;;;;5012730;28;20072;-23
2022/08/18 08:39:30;;;;;;;3.40;2.90;;;23.80;94.10;;;;;;5013062;28;20034;-23
2022/08/18 08:42:04;;;;;;;3.47;3.00;;;23.80;94.10;;;;;;5013080;28;20093;-24
2022/08/18 08:44:39;;;;;;;3.40;2.88;;;23.80;94.10;;;;;;5013024;28;20026;-23
2022/08/18 08:47:14;;;;;;;5.57;3.28;;;23.80;94.10;;;;;;5012947;28;20101;-24
2022/08/18 08:49:57;;;;;;;5.30;3.17;;;23.70;94.10;;;;;;5013005;28;20026;-24
2022/08/18 08:52:42;;;;;;;4.10;3.10;;;23.80;94.20;;;;;;5013051;28;20548;-24
2022/08/18 08:55:25;;;;;;;3.75;3.20;;;23.70;94.20;;;;;;5013062;28;20034;-23
2022/08/18 08:58:00;;;;;;;4.05;2.83;;;23.70;94.60;;;;;;5012072;28;20458;-24
2022/08/18 09:00:27;;;;;;;4.60;3.10;;;23.70;94.20;;;;;;5012808;28;20026;-24
2022/08/18 09:03:22;;;;;;;4.45;3.10;;;23.80;94.20;;;;;;5012827;28;20026;-23
2022/08/18 09:05:59;;;;;;;;;;;23.80;94.30;;;;;;5000063;28;20459;-23
2022/08/18 09:08:49;;;;;;;8.40;3.40;;;23.80;94.20;;;;;;5012616;28;20329;-24
2022/08/18 09:11:36;;;;;;;5.10;3.08;;;23.80;94.20;;;;;;5012938;28;20026;-23
2022/08/18 09:14:21;;;;;;;3.22;2.92;;;23.80;94.20;;;;;;5021857;28;20033;-23
2022/08/18 09:16:58;;;;;;;5.55;3.30;;;23.80;94.10;;;;;;5018311;28;20084;-24
2022/08/18 09:19:46;;;;;;;3.33;3.03;;;23.90;94.20;;;;;;5013220;28;20030;-23
2022/08/18 09:22:47;;;;;;;4.13;3.40;;;23.90;94.20;;;;;;5013091;28;20036;-23
2022/08/18 09:25:36;;;;;;;3.88;2.80;;;23.90;94.10;;;;;;4980754;28;20033;-24
2022/08/18 09:28:13;;;;;;;3.58;2.95;;;24.00;94.10;;;;;;5012805;28;20109;-23
2022/08/18 09:30:45;;;;;;;4.20;3.22;;;24.00;94.20;;;;;;5012704;28;20044;-23
2022/08/18 09:33:18;;;;;;;3.72;3.17;;;24.10;94.10;;;;;;5013136;28;20038;-24
2022/08/18 09:36:18;;;;;;;4.53;3.10;;;24.10;94.00;;;;;;5012359;28;20113;-24
2022/08/18 09:41:47;;;;;;;3.50;3.20;;;24.20;94.00;;;;;;5012289;28;20113;-24
2022/08/18 09:44:34;;;;;;;4.38;3.10;;;24.20;94.00;;;;;;4995399;28;20025;-24
2022/08/18 09:47:00;;;;;;;4.65;3.50;;;24.20;93.90;;;;;;5012466;28;20022;-24
2022/08/18 09:49:26;;;;;;;4.68;3.05;;;24.20;93.90;;;;;;5012601;28;20022;-23
2022/08/18 09:51:55;;;;;;;4.47;3.35;;;24.20;93.90;;;;;;5012286;28;20101;-24
2022/08/18 09:54:32;;;;;;;3.40;3.00;;;24.20;93.90;;;;;;5012534;28;20101;-24
2022/08/18 09:56:57;;;;;;;3.72;3.42;;;24.20;93.90;;;;;;5012724;28;20037;-23
2022/08/18 09:59:32;;;;;;;3.47;3.17;;;24.20;93.90;;;;;;5012202;28;20395;-23
2022/08/18 10:02:09;;;;;;;4.28;3.28;;;24.20;93.90;;;;;;5012166;28;20022;-24
2022/08/18 10:04:47;;;;;;;4.60;3.60;;;24.20;94.00;;;;;;5012307;28;20024;-23
2022/08/18 10:07:34;;;;;;;5.10;3.63;;;24.20;93.90;;;;;;5012209;28;20409;-23
2022/08/18 10:10:21;;;;;;;4.10;3.70;;;24.20;93.90;;;;;;5013577;28;20022;-24
2022/08/18 10:13:00;;;;;;;3.92;3.28;;;24.20;94.00;;;;;;5016582;28;20030;-24
2022/08/18 10:15:33;;;;;;;4.38;3.55;;;24.20;94.00;;;;;;5016738;28;20018;-23
2022/08/18 10:18:27;;;;;;;3.90;3.30;;;24.20;94.00;;;;;;5015789;28;20118;-24
2022/08/18 10:20:57;;;;;;;4.50;3.33;;;24.20;94.00;;;;;;5016208;28;20022;-24
2022/08/18 10:23:44;;;;;;;4.13;3.47;;;24.20;94.00;;;;;;5016371;28;20038;-24
2022/08/18 10:26:29;;;;;;;3.92;3.60;;;24.30;94.00;;;;;;5015933;28;20053;-24
2022/08/18 10:29:04;;;;;;;3.40;3.10;;;24.30;94.00;;;;;;5015997;28;20514;-23
2022/08/18 10:31:55;;;;;;;4.18;3.60;;;24.30;94.00;;;;;;5015830;28;20394;-24
2022/08/18 10:34:40;;;;;;;3.50;3.20;;;24.30;93.90;;;;;;5015873;28;20041;-24
2022/08/18 10:37:18;;;;;;;;;;;24.30;93.90;;;;;;5016301;28;20022;-24
2022/08/18 10:39:51;;;;;;;3.97;3.55;;;24.30;93.90;;;;;;5015685;28;20525;-24
2022/08/18 10:42:21;;;;;;;3.78;3.45;;;24.30;93.90;;;;;;5015609;28;20391;-23
2022/08/18 10:44:51;;;;;;;4.43;3.50;;;24.30;93.90;;;;;;5015751;28;20080;-24
2022/08/18 10:47:26;;;;;;;5.38;3.50;;;24.30;93.90;;;;;;5015664;28;20041;-24
2022/08/18 10:49:52;;;;;;;5.43;3.70;;;24.30;93.90;;;;;;5015722;28;20025;-24
2022/08/18 10:53:10;;;;;;;5.00;3.63;;;24.30;93.90;;;;;;5015442;28;20026;-23
2022/08/18 10:56:31;;;;;;;4.25;3.78;;;24.40;93.90;;;;;;4965450;28;20068;-23
2022/08/18 10:59:00;;;;;;;4.07;3.50;;;24.40;93.80;;;;;;4954863;28;20518;-23
2022/08/18 11:01:59;;;;;;;4.10;3.65;;;24.40;93.90;;;;;;5014945;28;20033;-24
2022/08/18 11:04:34;;;;;;;4.80;3.90;;;24.40;93.90;;;;;;5015844;28;20017;-24
2022/08/18 11:07:10;;;;;;;4.05;3.65;;;24.40;93.90;;;;;;5015697;28;20021;-24
2022/08/18 11:09:38;;;;;;;3.95;3.55;;;24.40;93.90;;;;;;5015415;28;20018;-24
2022/08/18 11:12:04;;;;;;;4.78;3.35;;;24.30;93.90;;;;;;5015181;28;20088;-23
2022/08/18 11:14:58;;;;;;;4.85;3.92;;;24.40;93.90;;;;;;5015677;28;20038;-24
2022/08/18 11:17:40;;;;;;;5.28;4.07;;;24.40;93.90;;;;;;5015350;28;20041;-24
2022/08/18 11:20:08;;;;;;;4.60;3.85;;;24.40;93.90;;;;;;5014119;28;20026;-23
2022/08/18 11:22:35;;;;;;;3.90;3.40;;;24.30;93.90;;;;;;5015078;28;20085;-24
2022/08/18 11:25:14;;;;;;;4.53;3.88;;;24.30;93.90;;;;;;5014983;28;20100;-23
2022/08/18 11:27:45;;;;;;;3.80;3.40;;;24.30;93.90;;;;;;5014355;28;20033;-23
2022/08/18 11:30:11;;;;;;;4.13;3.72;;;24.30;93.90;;;;;;5014809;28;20472;-23
2022/08/18 11:32:39;;;;;;;4.18;3.78;;;24.30;93.90;;;;;;5014616;28;20030;-24
2022/08/18 11:35:11;;;;;;;6.07;4.30;;;24.30;93.90;;;;;;5014990;28;20025;-24
2022/08/18 11:37:40;;;;;;;4.63;4.00;;;24.30;93.90;;;;;;5014468;28;20018;-23
2022/08/18 11:40:17;;;;;;;6.47;3.67;;;24.30;93.90;;;;;;5014430;28;20034;-24
2022/08/18 11:43:01;;;;;;;6.28;4.10;;;24.30;93.90;;;;;;5014520;28;20033;-23
2022/08/18 11:45:33;;;;;;;3.92;3.53;;;24.30;93.90;;;;;;5014806;28;20373;-24
2022/08/18 11:48:31;;;;;;;5.40;4.20;;;24.30;93.90;;;;;;5014235;28;20018;-24
2022/08/18 11:51:02;;;;;;;5.40;4.25;;;24.30;93.90;;;;;;5014120;28;20021;-23
2022/08/18 11:53:31;;;;;;;5.85;4.18;;;24.30;93.90;;;;;;5014505;28;20041;-23
2022/08/18 11:56:04;;;;;;;4.90;4.40;;;24.30;93.90;;;;;;5014244;28;20037;-23
2022/08/18 11:58:47;;;;;;;5.93;4.22;;;24.30;93.90;;;;;;5013770;28;20040;-24
2022/08/18 12:01:50;;;;;;;5.15;4.00;;;24.30;93.90;;;;;;5013675;28;20033;-24
2022/08/18 12:04:19;;;;;;;4.47;3.97;;;24.30;93.90;;;;;;5014077;28;20033;-24
2022/08/18 12:07:00;;;;;;;4.68;4.18;;;24.30;94.20;;;;;;5013724;28;20045;-24
2022/08/18 12:09:35;;;;;;;5.50;3.85;;;24.30;93.90;;;;;;5013488;28;20026;-23
2022/08/18 12:12:16;;;;;;;4.88;3.80;;;24.30;93.90;;;;;;5014090;28;20045;-23
2022/08/18 12:15:03;;;;;;;4.82;4.20;;;24.20;93.80;;;;;;5013661;28;20097;-24
2022/08/18 12:17:32;;;;;;;4.75;4.28;;;24.30;93.80;;;;;;5013469;28;20030;-23
2022/08/18 12:19:58;;;;;;;4.90;4.07;;;24.20;93.90;;;;;;5013294;28;20045;-23
2022/08/18 12:22:33;;;;;;;5.68;4.40;;;24.30;93.80;;;;;;5013890;28;20018;-23
2022/08/18 12:25:00;;;;;;;5.00;4.50;;;24.30;93.80;;;;;;5013996;28;20112;-24
2022/08/18 12:27:29;;;;;;;4.95;4.45;;;24.30;93.80;;;;;;5014082;28;20022;-23
2022/08/18 12:29:57;;;;;;;6.00;4.40;;;24.30;93.80;;;;;;5013530;28;20101;-24
2022/08/18 12:32:25;;;;;;;6.03;4.68;;;24.30;93.70;;;;;;5012446;28;20037;-24
2022/08/18 12:34:51;;;;;;;4.97;4.38;;;24.30;93.70;;;;;;5013539;28;20037;-24
2022/08/18 12:37:19;;;;;;;5.90;4.55;;;24.30;93.70;;;;;;4996147;28;20426;-24
2022/08/18 12:39:45;;;;;;;5.55;4.53;;;24.30;93.70;;;;;;5013812;28;20172;-23
2022/08/18 12:42:11;;;;;;;6.28;4.95;;;24.30;93.70;;;;;;5013990;28;20109;-23
2022/08/18 12:44:37;;;;;;;5.15;4.65;;;24.30;93.70;;;;;;5013589;28;20030;-23
2022/08/18 12:47:17;;;;;;;6.50;4.55;;;24.20;93.70;;;;;;5018760;28;20025;-24
2022/08/18 12:49:43;;;;;;;4.72;4.20;;;24.20;93.70;;;;;;5017037;28;20086;-23
2022/08/18 12:52:09;;;;;;;5.80;4.47;;;24.20;93.70;;;;;;5017170;28;20050;-24
2022/08/18 12:54:35;;;;;;;7.00;4.80;;;24.20;93.70;;;;;;5013853;28;20028;-23
2022/08/18 12:57:02;;;;;;;5.00;4.55;;;24.20;93.60;;;;;;5013580;28;20109;-24
2022/08/18 12:59:28;;;;;;;4.65;4.22;;;24.20;93.60;;;;;;5013267;28;20471;-23
2022/08/18 13:01:54;;;;;;;5.35;4.85;;;24.30;93.70;;;;;;5013517;28;20034;-23
2022/08/18 13:04:20;;;;;;;6.13;4.90;;;24.30;93.60;;;;;;5013276;28;20022;-23
2022/08/18 13:06:52;;;;;;;5.90;4.90;;;24.30;93.60;;;;;;5013703;28;20101;-23
2022/08/18 13:09:19;;;;;;;6.93;4.50;;;24.30;93.50;;;;;;5013086;28;20105;-23
2022/08/18 13:11:45;;;;;;;6.65;4.65;;;24.30;93.50;;;;;;5012924;28;20029;-23
2022/08/18 13:14:11;;;;;;;8.27;4.60;;;24.40;93.50;;;;;;5012952;28;20025;-24
2022/08/18 13:16:40;;;;;;;5.00;4.32;;;24.40;93.50;;;;;;5012840;28;20467;-23
2022/08/18 13:19:09;;;;;;;4.95;4.40;;;24.40;93.40;;;;;;5013021;28;20025;-23
2022/08/18 13:21:35;;;;;;;4.60;4.15;;;24.40;93.40;;;;;;4995888;28;20021;-23
2022/08/18 13:24:01;;;;;;;4.97;4.20;;;24.50;93.30;;;;;;5012871;28;20029;-23
2022/08/18 13:26:32;;;;;;;4.85;4.10;;;24.50;93.30;;;;;;5013543;28;20024;-23
2022/08/18 13:28:58;;;;;;;5.68;4.45;;;24.50;93.30;;;;;;5012544;28;20022;-23
2022/08/18 13:31:25;;;;;;;7.07;4.82;;;24.50;93.20;;;;;;5012839;28;20033;-23
2022/08/18 13:33:52;;;;;;;7.18;4.57;;;24.50;93.20;;;;;;5012996;28;20101;-23